KLEE

Leesburg International Airport

Leesburg, Florida, USA
METAR KLEE 230753Z AUTO 12006KT 10SM CLR 23/22 A3008 RMK AO2 SLP184 T02280217
Observed Flight Rules
May-23 @ 07:53 UTC (44 minutes ago) Visual Flight Rules
Wind Visibility Clouds
120° at 6 knots 10 miles
  • Clear skies
Temperatures Readings
Current 23°C / 73°F
Dewpoint 22°C / 72°F
Humidity 94%
Altimeter 30.08" Hg
Pressure 1018.4 hPa
Elevation 23
METAR KLEE 230753Z AUTO 12006KT 10SM CLR 23/22 A3008 RMK AO2 SLP184 T02280217
Observed Flight Rules
May-23 @ 07:53 UTC
(44 minutes ago)
VFR
Wind Visibility
120° at 6 knots 10 miles
Clouds
  • Clear skies
Temperature Dewpoint
23°C / 73°F 22°C / 72°F
Humidity Altimeter Pressure
94% 30.08" Hg 1018.4 hPa